Dacula, Georgia
Current Conditions -  °F | °C
As of 8:45 AM on Thursday 18 Dec 2014 (Local Time) from KLZU Reporting Station
Clear Clear  
Wind Chill: 39°   Ceiling: Unl
Heat Index: 39°   Visibility: 10mi
Dew Point: 27°   Wind: 0mph
Humidity: 61%   Direction: NA
Pressure: 30.15"   Gusts: NA
Location:  33.99°N, 83.9°W
Report Text: KLZU 181345Z 00000KT 10SM CLR 04/M03 A3015 RMK ATIS R RWY 25 ; BK
Loading
Personal Weather Stations






























Interactive Weather Map New forecast layout! Learn more

10-Day Weather Forecast

Advertisements
Track Severe Weather on mobile